createdAt,value
2023-12-28T00:01:24.878Z,15.93
2023-12-28T00:06:27.006Z,15.91
2023-12-28T00:11:29.129Z,15.93
2023-12-28T00:16:34.252Z,15.91
2023-12-28T00:21:36.544Z,15.92
2023-12-28T00:26:38.714Z,15.93
2023-12-28T00:31:42.618Z,15.91
2023-12-28T00:36:44.790Z,15.90
2023-12-28T00:41:46.860Z,15.90
2023-12-28T00:46:48.905Z,15.90
2023-12-28T00:51:51.078Z,15.90
2023-12-28T00:56:53.229Z,15.91
2023-12-28T01:01:55.349Z,15.90
2023-12-28T01:06:57.503Z,15.90
2023-12-28T01:12:00.310Z,15.88
2023-12-28T01:17:02.772Z,15.90
2023-12-28T01:22:05.119Z,15.89
2023-12-28T01:27:07.256Z,15.88
2023-12-28T01:32:09.372Z,15.91
2023-12-28T01:37:13.218Z,15.84
2023-12-28T01:42:15.386Z,15.87
2023-12-28T01:47:17.723Z,15.87
2023-12-28T01:52:20.787Z,15.88
2023-12-28T01:57:23.180Z,15.88
2023-12-28T02:02:25.716Z,15.86
2023-12-28T02:07:30.126Z,15.86
2023-12-28T02:12:32.296Z,15.87
2023-12-28T02:17:43.569Z,15.86
2023-12-28T02:22:47.657Z,15.87
2023-12-28T02:27:51.599Z,15.86
2023-12-28T02:33:12.074Z,15.83
2023-12-28T02:38:17.386Z,15.87
2023-12-28T02:43:19.875Z,15.87
2023-12-28T02:48:22.584Z,15.86
2023-12-28T02:53:24.880Z,15.85
2023-12-28T02:58:26.956Z,15.83
2023-12-28T03:03:29.254Z,15.82
2023-12-28T03:08:31.442Z,15.82
2023-12-28T03:13:33.778Z,15.82
2023-12-28T03:18:36.012Z,15.84
2023-12-28T03:23:38.219Z,15.81
2023-12-28T03:28:41.621Z,15.82
2023-12-28T03:33:43.862Z,15.81
2023-12-28T03:38:45.979Z,15.84
2023-12-28T03:43:48.857Z,15.82
2023-12-28T03:48:51.078Z,15.82
2023-12-28T03:53:53.417Z,15.83
2023-12-28T03:58:55.946Z,15.80
2023-12-28T04:03:58.231Z,15.80
2023-12-28T04:09:00.313Z,15.81
2023-12-28T04:14:02.357Z,15.79
2023-12-28T04:19:04.894Z,15.81
2023-12-28T04:24:08.522Z,15.78
2023-12-28T04:29:10.820Z,15.81
2023-12-28T04:34:13.117Z,15.81
2023-12-28T04:39:15.384Z,15.80
2023-12-28T04:44:17.581Z,15.79
2023-12-28T04:49:21.603Z,15.78
2023-12-28T04:54:24.456Z,15.77
2023-12-28T04:59:27.030Z,15.79
2023-12-28T05:04:30.675Z,15.79
2023-12-28T05:09:32.869Z,15.79
2023-12-28T05:14:35.034Z,15.78
2023-12-28T05:19:37.212Z,15.78
2023-12-28T05:24:39.746Z,15.80
2023-12-28T05:29:41.898Z,15.79
2023-12-28T05:34:44.296Z,15.78
2023-12-28T05:39:46.549Z,15.78
2023-12-28T05:44:48.679Z,15.75
2023-12-28T05:49:51.024Z,15.75
2023-12-28T05:54:53.264Z,15.77
2023-12-28T05:59:55.577Z,15.73
2023-12-28T06:04:57.827Z,15.77
2023-12-28T06:10:00.090Z,15.77
2023-12-28T06:15:02.757Z,15.76
2023-12-28T06:20:05.978Z,15.77
2023-12-28T06:25:08.098Z,15.76
2023-12-28T06:30:10.611Z,15.74
2023-12-28T06:35:12.809Z,15.75
2023-12-28T06:40:15.155Z,15.75
2023-12-28T06:45:17.334Z,15.75
2023-12-28T06:50:19.498Z,15.76
2023-12-28T06:55:21.728Z,15.75
2023-12-28T07:00:23.930Z,15.74
2023-12-28T07:05:26.166Z,15.73
2023-12-28T07:10:28.257Z,15.75
2023-12-28T07:15:30.389Z,15.76
2023-12-28T07:20:32.610Z,15.76
2023-12-28T07:25:34.716Z,15.71
2023-12-28T07:30:37.764Z,15.72
2023-12-28T07:35:40.678Z,15.75
2023-12-28T07:40:42.916Z,15.75
2023-12-28T07:45:45.068Z,15.75
2023-12-28T07:50:47.273Z,15.73
2023-12-28T07:55:49.350Z,15.71
2023-12-28T08:00:53.182Z,15.74
2023-12-28T08:05:55.535Z,15.75
2023-12-28T08:10:57.691Z,15.74
2023-12-28T08:15:59.989Z,15.74
2023-12-28T08:21:02.186Z,15.73
2023-12-28T08:26:04.542Z,15.73
2023-12-28T08:31:08.832Z,15.74
2023-12-28T08:36:12.619Z,15.73
2023-12-28T08:41:28.198Z,15.74
2023-12-28T08:46:30.466Z,15.71
2023-12-28T08:51:32.622Z,15.70
2023-12-28T08:56:34.810Z,15.71
2023-12-28T09:01:36.985Z,15.73
2023-12-28T09:06:39.213Z,15.74
2023-12-28T09:11:41.476Z,15.74
2023-12-28T09:16:45.166Z,15.74
2023-12-28T09:21:47.515Z,15.72
2023-12-28T09:26:49.730Z,15.71
2023-12-28T09:31:51.932Z,15.72
2023-12-28T09:36:54.106Z,15.72
2023-12-28T09:42:01.874Z,15.72
2023-12-28T09:47:08.002Z,15.72
2023-12-28T09:52:10.393Z,15.71
2023-12-28T09:57:13.115Z,15.70
2023-12-28T10:02:17.281Z,15.73
2023-12-28T10:07:20.041Z,15.69
2023-12-28T10:12:22.211Z,15.71
2023-12-28T10:17:24.395Z,15.72
2023-12-28T10:22:26.741Z,15.70
2023-12-28T10:27:29.028Z,15.71
2023-12-28T10:32:31.261Z,15.73
2023-12-28T10:37:36.968Z,15.73
2023-12-28T10:42:47.722Z,15.72
2023-12-28T10:48:05.849Z,15.70
2023-12-28T10:53:49.950Z,15.70
2023-12-28T10:59:18.257Z,15.73
2023-12-28T11:04:37.730Z,15.73
2023-12-28T11:09:43.523Z,15.74
2023-12-28T11:14:46.601Z,15.72
2023-12-28T11:19:49.794Z,15.71
2023-12-28T11:24:55.064Z,15.73
2023-12-28T11:29:57.858Z,15.73
2023-12-28T11:35:00.316Z,15.72
2023-12-28T11:40:12.139Z,15.72
2023-12-28T11:45:14.247Z,15.69
2023-12-28T11:50:16.776Z,15.72
2023-12-28T11:55:25.090Z,15.75
2023-12-28T12:00:27.758Z,15.75
2023-12-28T12:05:30.185Z,15.75
2023-12-28T12:10:33.811Z,15.73
2023-12-28T12:15:36.265Z,15.75
2023-12-28T12:20:40.290Z,15.76
2023-12-28T12:25:43.004Z,15.78
2023-12-28T12:30:55.176Z,15.77
2023-12-28T12:35:57.438Z,15.77
2023-12-28T12:40:59.978Z,15.76
2023-12-28T12:46:02.205Z,15.75
2023-12-28T12:51:05.233Z,15.75
2023-12-28T12:56:08.954Z,15.79
2023-12-28T13:01:14.345Z,15.78
2023-12-28T13:06:16.554Z,15.79
2023-12-28T13:11:18.688Z,15.77
2023-12-28T13:16:20.789Z,15.77
2023-12-28T13:21:23.128Z,15.86
2023-12-28T13:26:25.276Z,15.88
2023-12-28T13:31:27.892Z,15.82
2023-12-28T13:36:30.111Z,15.86
2023-12-28T13:41:32.623Z,15.81
2023-12-28T13:46:34.769Z,15.82
2023-12-28T13:51:37.326Z,15.80
2023-12-28T13:56:39.501Z,15.82
2023-12-28T14:01:42.100Z,15.81
2023-12-28T14:06:44.354Z,15.82
2023-12-28T14:11:47.361Z,15.82
2023-12-28T14:16:49.458Z,15.80
2023-12-28T14:21:51.946Z,15.80
2023-12-28T14:26:55.740Z,15.81
2023-12-28T14:31:58.144Z,15.81
2023-12-28T14:37:00.294Z,15.83
2023-12-28T14:42:05.161Z,15.83
2023-12-28T14:47:07.498Z,15.83
2023-12-28T14:52:09.638Z,15.82
2023-12-28T14:57:13.213Z,15.79
2023-12-28T15:02:16.153Z,15.83
2023-12-28T15:07:18.284Z,15.81
2023-12-28T15:12:20.665Z,15.80
2023-12-28T15:17:23.468Z,15.82
2023-12-28T15:22:25.902Z,15.83
2023-12-28T15:27:28.003Z,15.86
2023-12-28T15:32:30.055Z,15.86
2023-12-28T15:37:33.109Z,15.85
2023-12-28T15:42:36.643Z,15.84
2023-12-28T15:47:38.823Z,15.84
2023-12-28T15:52:41.516Z,15.86
2023-12-28T15:57:43.802Z,15.84
2023-12-28T16:02:46.043Z,15.85
2023-12-28T16:07:48.390Z,15.87
2023-12-28T16:12:50.529Z,15.87
2023-12-28T16:17:58.826Z,15.86
2023-12-28T16:23:01.630Z,15.84
2023-12-28T16:28:05.874Z,15.89
2023-12-28T16:33:09.646Z,15.87
2023-12-28T16:38:11.817Z,15.86
2023-12-28T16:43:14.322Z,15.85
2023-12-28T16:48:16.607Z,15.87
2023-12-28T16:53:18.796Z,15.88
2023-12-28T16:58:20.902Z,15.87
2023-12-28T17:03:23.289Z,15.88
2023-12-28T17:08:25.515Z,15.88
2023-12-28T17:13:27.876Z,15.87
2023-12-28T17:18:30.301Z,15.89
2023-12-28T17:23:32.411Z,15.88
2023-12-28T17:28:44.470Z,15.87
2023-12-28T17:33:46.933Z,15.87
2023-12-28T17:38:50.679Z,15.88
2023-12-28T17:43:56.757Z,15.86
2023-12-28T17:49:01.761Z,15.87
2023-12-28T17:54:04.490Z,15.87
2023-12-28T17:59:06.625Z,15.88
2023-12-28T18:04:08.976Z,15.89
2023-12-28T18:09:11.249Z,15.89
2023-12-28T18:14:13.424Z,15.88
2023-12-28T18:19:15.631Z,15.87
2023-12-28T18:24:17.776Z,15.88
2023-12-28T18:29:19.899Z,15.90
2023-12-28T18:34:22.051Z,15.89
2023-12-28T18:39:28.730Z,15.88
2023-12-28T18:44:34.805Z,15.87
2023-12-28T18:49:36.999Z,15.91
2023-12-28T18:54:39.199Z,15.90
2023-12-28T18:59:41.258Z,15.91
2023-12-28T19:04:43.514Z,15.88
2023-12-28T19:09:45.764Z,15.86
2023-12-28T19:14:47.890Z,15.88
2023-12-28T19:19:50.086Z,15.90
2023-12-28T19:24:52.278Z,15.90
2023-12-28T19:29:55.187Z,15.90
2023-12-28T19:35:00.233Z,15.87
2023-12-28T19:40:02.909Z,15.89
2023-12-28T19:45:05.459Z,15.87
2023-12-28T19:50:08.817Z,15.90
2023-12-28T19:55:11.553Z,15.89
2023-12-28T20:00:14.271Z,15.89
2023-12-28T20:05:17.664Z,15.91
2023-12-28T20:10:19.974Z,15.90
2023-12-28T20:15:25.112Z,15.91
2023-12-28T20:20:27.422Z,15.88
2023-12-28T20:25:30.869Z,15.88
2023-12-28T20:30:33.439Z,15.90
2023-12-28T20:35:35.560Z,15.92
2023-12-28T20:40:38.352Z,15.91
2023-12-28T20:45:40.404Z,15.88
2023-12-28T20:50:42.555Z,15.88
2023-12-28T20:55:44.743Z,15.90
2023-12-28T21:00:47.030Z,15.90
2023-12-28T21:05:49.135Z,15.90
2023-12-28T21:10:56.092Z,15.88
2023-12-28T21:15:58.235Z,15.89
2023-12-28T21:21:09.856Z,15.89
2023-12-28T21:26:13.802Z,15.91
2023-12-28T21:31:16.078Z,15.92
2023-12-28T21:36:18.245Z,15.93
2023-12-28T21:41:20.319Z,15.90
2023-12-28T21:46:23.135Z,15.89
2023-12-28T21:51:25.517Z,15.90
2023-12-28T21:56:27.620Z,15.90
2023-12-28T22:01:29.999Z,15.89
2023-12-28T22:06:32.189Z,15.89
2023-12-28T22:11:34.339Z,15.91
2023-12-28T22:16:37.230Z,15.90
2023-12-28T22:21:39.330Z,15.90
2023-12-28T22:26:43.419Z,15.90
2023-12-28T22:31:48.368Z,15.86
2023-12-28T22:36:50.904Z,15.87
2023-12-28T22:41:53.283Z,15.90
2023-12-28T22:46:55.471Z,15.91
2023-12-28T22:51:57.775Z,15.90
2023-12-28T22:56:59.922Z,15.90
2023-12-28T23:02:02.088Z,15.89
2023-12-28T23:07:04.432Z,15.89
2023-12-28T23:12:06.648Z,15.91
2023-12-28T23:17:08.841Z,15.92
2023-12-28T23:22:11.042Z,15.90
2023-12-28T23:27:13.217Z,15.90
2023-12-28T23:32:15.349Z,15.92
2023-12-28T23:37:17.583Z,15.92
2023-12-28T23:42:19.744Z,15.92
2023-12-28T23:47:21.980Z,15.97
2023-12-28T23:52:24.039Z,15.96
2023-12-28T23:57:26.037Z,15.91
